Боктор

Карта отелей и гостиниц, располагающихся рядом с аэропортом Боктор :

Боктор Хабаровский край 51° 5' 48.9012" N, 137° 24' 36.1188" E
Боктор Хабаровский край 51° 5' 48.9012" N, 137° 24' 36.1188" E
Код аэродрома ИКАО: 
XHXB
Код аэродрома RU: 
ЬХЬБ
Координаты: 
N51.09692° E137.41003°
Превышение над уровнем моря : 
90
Основная полоса: 
Курс магнитный: 
Длина основной ВПП: 
Ширина основной ВПП: 
Покрытие основной ВПП: 
Нетвёрдое (грунт)
Освещение ВПП: 
Нет
Тип: 
Вертодром
Класс аэродрома: 
Принадлежность: 
ГА
Статус: 
Недействующий
Сайт: 
E-mail аэродрома: 
Страна: 
Россия
Регион: 
Хабаровский край
Город: 
Дополнительная информация: 
Хабаровский край, Россия.

Найти трансфер

С помощью этой формы Вы можете найти трансфер из аэропорта Боктор в город, аэропорт или вокзал:

Карта места

Javascript is required to view this map.

Погода в аэропортах:

Авиационная погода в Куусамо

Регион: 
Погода METAR: 
EFKS 241650Z AUTO VRB02KT 1100 R12/1500N BCFG VV002 09/09 Q1006
Время наблюдения: 
2020-09-24T16:50:00Z
Температура C: 
9.0
Точка росы: 
9.0
Направление ветра: 
0
Скорость ветра (узлы): 
2
Метеорологическая видимость: 
0.68
Явления погоды: 
BCFG
Условия полета: 
LIFR

Авиационная погода в аэропорту Алыкель

Регион: 
Погода METAR: 
UOOO 241700Z 18003MPS 9999 -RA BKN019 06/05 Q1011 R19/29//50 NOSIG RMK QFE742/0989
Время наблюдения: 
2020-09-24T17:00:00Z
Температура C: 
6.0
Точка росы: 
5.0
Направление ветра: 
180
Скорость ветра (узлы): 
6
Метеорологическая видимость: 
6.21
Явления погоды: 
-RA
Условия полета: 
MVFR
Аэропорт подробнее: 

Авиационная погода в Павлодаре

Регион: 
Погода METAR: 
UASP 241700Z 29009G14MPS 9999 -RA OVC010 07/05 Q1007 R21/290260 NOSIG RMK QFE744/0992
Время наблюдения: 
2020-09-24T17:00:00Z
Температура C: 
7.0
Точка росы: 
5.0
Направление ветра: 
290
Скорость ветра (узлы): 
17
Метеорологическая видимость: 
6.21
Явления погоды: 
-RA
Условия полета: 
MVFR
Аэропорт подробнее: 

Авиационная погода в аэропорту Бесовец

Регион: 
Погода METAR: 
ULPB 241700Z 00000MPS 2600 BR NSC 12/12 Q1012 R19/09//60 TEMPO 0300 FG RMK QFE755/1007
Время наблюдения: 
2020-09-24T17:00:00Z
Температура C: 
12.0
Точка росы: 
12.0
Направление ветра: 
0
Скорость ветра (узлы): 
0
Метеорологическая видимость: 
1.62
Явления погоды: 
BR
Условия полета: 
IFR
Аэропорт подробнее: